Time;durP1;ratioP1;P1;durP2;ratioP2;P2;SDS_P1;SDS_P2;PMS_P1;PMS_P2;Temp;Humidity;BMP_temperature;BMP_pressure;BME280_temperature;BME280_humidity;BME280_pressure;Samples;Min_cycle;Max_cycle;Signal;HPM_P1;HPM_P2
2022/12/15 08:05:52;;;;;;;53.50;17.37;;;;;;;-1.80;100.00;101545.62;1806895;78;26256;-83
2022/12/15 08:08:20;;;;;;;46.55;16.30;;;;;;;-1.34;100.00;101533.00;1764523;80;20981;-84
2022/12/15 08:10:46;;;;;;;43.85;15.58;;;;;;;-0.97;100.00;101508.82;1762626;80;21431;-84
2022/12/15 08:13:13;;;;;;;44.55;15.75;;;;;;;-0.67;100.00;101490.72;1765408;80;20947;-84
2022/12/15 08:15:40;;;;;;;44.70;15.58;;;;;;;-0.50;100.00;101487.91;1757779;80;20995;-84
2022/12/15 08:18:08;;;;;;;44.63;14.83;;;;;;;-0.33;100.00;101467.53;1763184;80;21013;-84
2022/12/15 08:20:35;;;;;;;54.30;16.57;;;;;;;-0.17;100.00;101452.65;1754553;80;20993;-83
2022/12/15 08:23:01;;;;;;;41.05;15.00;;;;;;;0.00;100.00;101452.95;1768011;80;21121;-83
2022/12/15 08:25:27;;;;;;;41.15;14.43;;;;;;;0.11;100.00;101441.97;1769321;80;20980;-83
2022/12/15 08:31:34;;;;;;;40.45;14.60;;;;;;;0.05;100.00;101427.25;1773275;80;21547;-83
2022/12/15 08:34:00;;;;;;;43.40;14.58;;;;;;;0.08;100.00;101418.96;1754578;80;20869;-84
2022/12/15 08:36:27;;;;;;;38.78;15.00;;;;;;;0.35;100.00;101411.89;1753720;80;21882;-84
2022/12/15 08:38:56;;;;;;;36.58;13.10;;;;;;;0.38;100.00;101413.37;1752270;80;21066;-84
2022/12/15 08:41:26;;;;;;;40.17;14.40;;;;;;;0.50;100.00;101416.00;1758553;80;21311;-84
2022/12/15 08:43:53;;;;;;;38.17;12.55;;;;;;;0.50;100.00;101402.74;1771473;80;21039;-83
2022/12/15 08:46:24;;;;;;;32.48;12.28;;;;;;;0.56;100.00;101404.70;1765319;80;20980;-84
2022/12/15 08:48:51;;;;;;;36.63;13.18;;;;;;;0.67;100.00;101407.44;1678177;84;21958;-84
2022/12/15 08:51:19;;;;;;;41.00;13.38;;;;;;;0.80;100.00;101401.58;1678181;84;21509;-84
2022/12/15 08:53:46;;;;;;;35.73;12.55;;;;;;;0.88;100.00;101403.68;1636747;86;21090;-84
2022/12/15 08:56:16;;;;;;;32.30;11.93;;;;;;;0.99;100.00;101412.22;1668611;84;21589;-84
2022/12/15 08:58:44;;;;;;;35.88;12.43;;;;;;;1.10;100.00;101406.00;1670026;84;21027;-84
2022/12/15 09:01:16;;;;;;;31.30;12.15;;;;;;;1.05;100.00;101413.66;1665744;85;21466;-84
2022/12/15 09:03:42;;;;;;;30.95;11.22;;;;;;;1.13;100.00;101418.09;1666062;85;20992;-85
2022/12/15 09:09:13;;;;;;;27.93;11.20;;;;;;;1.32;100.00;101426.06;1666911;85;21060;-84
2022/12/15 09:11:39;;;;;;;33.45;11.68;;;;;;;1.39;100.00;101415.08;1667539;85;20926;-84
2022/12/15 09:14:06;;;;;;;34.43;12.88;;;;;;;1.52;100.00;101409.14;1657768;85;22549;-83
2022/12/15 09:20:02;;;;;;;28.23;9.95;;;;;;;1.61;100.00;101413.37;1675767;85;21481;-83
2022/12/15 09:22:30;;;;;;;27.87;10.70;;;;;;;1.75;100.00;101401.95;1672954;84;21147;-84
2022/12/15 09:24:56;;;;;;;29.00;11.15;;;;;;;1.85;100.00;101392.37;1654737;85;20977;-83
2022/12/15 09:27:22;;;;;;;26.45;10.85;;;;;;;1.95;100.00;101382.81;1659639;85;21812;-83
2022/12/15 09:29:49;;;;;;;27.20;11.03;;;;;;;1.94;100.00;101373.17;1672412;85;21088;-83
2022/12/15 09:32:15;;;;;;;29.45;11.40;;;;;;;1.97;100.00;101360.37;1669513;86;22325;-83
2022/12/15 09:34:41;;;;;;;25.50;10.38;;;;;;;1.83;100.00;101345.25;1666138;85;21040;-84
2022/12/15 09:37:07;;;;;;;26.87;10.98;;;;;;;1.88;100.00;101317.59;1669965;85;21006;-83
2022/12/15 09:39:33;;;;;;;30.35;10.20;;;;;;;1.72;100.00;101302.67;1609587;86;22598;-83
2022/12/15 09:42:00;;;;;;;30.52;10.70;;;;;;;1.83;100.00;101269.52;1624133;87;21021;-84
2022/12/15 09:44:29;;;;;;;32.70;10.40;;;;;;;1.98;100.00;101262.84;1627736;87;21080;-83
2022/12/15 09:47:16;;;;;;;30.90;11.73;;;;;;;1.85;100.00;101266.66;1627272;86;21081;-83
2022/12/15 09:49:57;;;;;;;26.95;11.08;;;;;;;1.83;100.00;101265.53;1619957;87;20994;-84
2022/12/15 09:52:39;;;;;;;26.45;9.90;;;;;;;1.89;100.00;101271.94;1676027;83;21860;-84
2022/12/15 09:55:17;;;;;;;26.93;9.98;;;;;;;1.91;100.00;101277.87;1696556;83;21051;-84
2022/12/15 09:57:53;;;;;;;25.40;10.20;;;;;;;1.78;100.00;101274.55;1632466;86;21046;-84
2022/12/15 10:00:34;;;;;;;25.85;9.98;;;;;;;1.97;100.00;101284.61;1660567;85;21081;-84
2022/12/15 10:03:34;;;;;;;25.97;9.95;;;;;;;1.92;100.00;101299.47;1614398;88;21211;-85
2022/12/15 10:13:42;;;;;;;26.05;9.65;;;;;;;2.00;100.00;101274.09;1660534;85;21509;-85
2022/12/15 10:16:34;;;;;;;24.10;9.75;;;;;;;2.06;100.00;101272.05;1596392;88;21101;-84
2022/12/15 10:19:15;;;;;;;24.77;9.75;;;;;;;2.10;100.00;101256.53;1591674;88;21058;-84
2022/12/15 10:21:41;;;;;;;26.23;10.25;;;;;;;2.13;100.00;101251.66;1586703;89;21904;-84
2022/12/15 10:24:15;;;;;;;27.05;10.82;;;;;;;2.14;100.00;101247.98;1587928;89;21499;-84
2022/12/15 10:26:46;;;;;;;31.80;11.18;;;;;;;2.18;100.00;101240.47;1549940;90;21067;-84
2022/12/15 10:29:23;;;;;;;23.85;9.85;;;;;;;2.24;100.00;101235.73;1443544;96;21024;-83
2022/12/15 10:32:07;;;;;;;29.72;10.55;;;;;;;2.25;100.00;101236.85;1373323;102;21592;-83
2022/12/15 10:34:36;;;;;;;28.65;10.65;;;;;;;2.29;100.00;101230.64;1398887;100;21879;-83
2022/12/15 10:37:03;;;;;;;27.62;9.83;;;;;;;2.27;100.00;101222.88;1408564;99;21109;-83
2022/12/15 10:39:38;;;;;;;22.45;9.28;;;;;;;2.31;100.00;101221.16;1410559;98;21733;-83
2022/12/15 10:42:23;;;;;;;25.45;10.35;;;;;;;2.29;100.00;101231.98;1414199;99;21153;-82
2022/12/15 10:44:56;;;;;;;28.42;10.32;;;;;;;2.27;100.00;101240.67;1412140;98;21102;-83
2022/12/15 10:47:30;;;;;;;26.17;11.18;;;;;;;2.34;100.00;101246.86;1418340;98;22090;-83
2022/12/15 10:50:17;;;;;;;29.65;11.53;;;;;;;2.37;100.00;101236.36;1415931;98;21694;-83
2022/12/15 10:52:43;;;;;;;29.95;10.70;;;;;;;2.42;100.00;101253.91;1415729;98;21031;-83
2022/12/15 10:55:42;;;;;;;24.60;9.68;;;;;;;2.44;100.00;101250.05;1442374;97;21121;-83
2022/12/15 10:58:21;;;;;;;27.75;9.68;;;;;;;2.45;100.00;101253.02;1364213;102;21199;-81
2022/12/15 11:00:50;;;;;;;26.82;8.98;;;;;;;2.55;100.00;101263.33;1415151;99;21895;-82
2022/12/15 11:03:25;;;;;;;34.18;10.65;;;;;;;2.56;100.00;101262.34;1418422;99;21682;-81
2022/12/15 11:05:54;;;;;;;30.12;9.90;;;;;;;2.56;100.00;101263.67;1424870;99;21185;-82
2022/12/15 11:08:23;;;;;;;30.82;10.20;;;;;;;2.61;100.00;101247.12;1423587;96;21224;-81
2022/12/15 11:13:39;;;;;;;29.15;9.78;;;;;;;2.53;100.00;101231.28;1460066;96;21137;-82
2022/12/15 11:16:18;;;;;;;27.58;10.95;;;;;;;2.48;100.00;101225.22;1437226;97;21578;-82
2022/12/15 11:18:55;;;;;;;27.75;9.88;;;;;;;2.47;100.00;101219.08;1461686;96;21064;-81
2022/12/15 11:21:32;;;;;;;29.85;10.23;;;;;;;2.51;100.00;101208.88;1459802;96;21207;-82
2022/12/15 11:24:09;;;;;;;26.80;9.95;;;;;;;2.52;100.00;101205.70;1474349;96;21230;-82
2022/12/15 11:26:59;;;;;;;26.23;9.70;;;;;;;2.50;100.00;101204.58;1465776;96;22671;-81
2022/12/15 11:29:34;;;;;;;24.07;8.30;;;;;;;2.55;100.00;101215.45;1551961;91;20997;-82
2022/12/15 11:32:00;;;;;;;24.32;9.48;;;;;;;2.59;100.00;101215.40;1565748;89;21056;-81
2022/12/15 11:42:26;;;;;;;27.70;10.05;;;;;;;2.56;100.00;101234.89;1596324;88;21083;-82
2022/12/15 11:45:00;;;;;;;27.40;9.95;;;;;;;2.58;100.00;101236.86;1567036;89;21552;-82
2022/12/15 11:47:54;;;;;;;30.88;10.90;;;;;;;2.61;100.00;101225.83;1558604;89;21051;-81
2022/12/15 11:50:40;;;;;;;27.82;10.38;;;;;;;2.59;100.00;101227.85;1554096;90;21123;-82
2022/12/15 11:53:40;;;;;;;26.57;10.30;;;;;;;2.59;100.00;101231.84;1596731;85;21468;-82
2022/12/15 11:56:26;;;;;;;27.13;10.20;;;;;;;2.54;100.00;101236.94;1616248;87;21859;-81
2022/12/15 11:59:19;;;;;;;29.50;9.78;;;;;;;2.59;100.00;101228.70;1670731;84;21585;-81
2022/12/15 12:01:57;;;;;;;22.05;9.88;;;;;;;2.60;100.00;101218.88;1673389;84;21032;-82
2022/12/15 12:04:40;;;;;;;25.40;10.08;;;;;;;2.58;100.00;101216.91;1677426;84;21166;-82
2022/12/15 12:07:34;;;;;;;27.58;9.95;;;;;;;2.57;100.00;101212.09;1660851;84;21051;-82
2022/12/15 12:10:12;;;;;;;23.90;9.30;;;;;;;2.57;100.00;101224.58;1666020;84;21801;-82
2022/12/15 12:13:17;;;;;;;24.40;9.63;;;;;;;2.57;100.00;101229.90;1666094;84;21080;-83
2022/12/15 12:16:03;;;;;;;25.32;9.35;;;;;;;2.60;100.00;101214.89;1609225;87;21561;-82
2022/12/15 12:18:45;;;;;;;26.80;9.38;;;;;;;2.58;100.00;101199.61;1610694;88;21514;-83
2022/12/15 12:21:21;;;;;;;25.20;10.30;;;;;;;2.61;100.00;101202.70;1606535;88;20985;-82
2022/12/15 12:24:17;;;;;;;24.40;9.55;;;;;;;2.59;100.00;101221.20;1604588;88;22013;-83
2022/12/15 12:27:11;;;;;;;27.93;10.95;;;;;;;2.63;100.00;101217.98;1601640;88;21221;-83
2022/12/15 12:29:48;;;;;;;25.35;10.05;;;;;;;2.59;100.00;101211.89;1602916;88;21148;-82
2022/12/15 12:32:54;;;;;;;25.95;9.65;;;;;;;2.58;100.00;101215.58;1602668;87;21222;-81
2022/12/15 12:35:46;;;;;;;29.37;10.25;;;;;;;2.60;100.00;101223.69;1601538;87;21204;-82
2022/12/15 12:38:13;;;;;;;26.00;9.43;;;;;;;2.57;100.00;101208.62;1610124;88;22651;-82
2022/12/15 12:40:51;;;;;;;25.02;9.43;;;;;;;2.47;100.00;101223.07;1604623;88;21454;-82
2022/12/15 12:43:37;;;;;;;25.32;10.10;;;;;;;2.49;100.00;101218.36;1609915;88;21063;-82
2022/12/15 12:46:17;;;;;;;25.50;9.50;;;;;;;2.53;100.00;101222.81;1597403;87;21586;-81
2022/12/15 12:48:55;;;;;;;24.98;9.18;;;;;;;2.56;100.00;101221.58;1600031;87;20938;-82
2022/12/15 12:51:36;;;;;;;24.10;10.15;;;;;;;2.58;100.00;101218.23;1595152;88;22018;-83
2022/12/15 12:54:10;;;;;;;29.77;10.90;;;;;;;2.59;100.00;101234.02;1752160;80;21729;-82
2022/12/15 12:56:43;;;;;;;24.40;9.63;;;;;;;2.59;100.00;101232.69;1696835;82;21146;-81
2022/12/15 12:59:30;;;;;;;29.25;10.98;;;;;;;2.63;100.00;101251.23;1698578;83;27684;-82
2022/12/15 13:02:16;;;;;;;26.90;10.08;;;;;;;2.70;100.00;101243.30;1624536;87;21555;-82
2022/12/15 13:04:52;;;;;;;24.90;9.60;;;;;;;2.71;100.00;101241.80;1624307;88;21520;-83
2022/12/15 13:07:39;;;;;;;29.07;10.50;;;;;;;2.75;100.00;101234.76;1624747;87;21582;-83
2022/12/15 17:04:28;;;;;;;56.85;19.62;;;;;;;0.04;100.00;101203.87;1797895;78;25841;-82
2022/12/15 17:06:54;;;;;;;56.30;19.17;;;;;;;0.85;100.00;101200.22;1754322;80;21145;-83
2022/12/15 17:09:23;;;;;;;57.45;19.25;;;;;;;1.33;100.00;101191.44;1757288;80;21120;-82
2022/12/15 17:11:49;;;;;;;50.08;17.60;;;;;;;1.59;100.00;101180.33;1751503;80;21057;-83
2022/12/15 17:14:15;;;;;;;49.50;16.85;;;;;;;1.81;100.00;101188.64;1749703;80;21048;-83
2022/12/15 17:16:42;;;;;;;44.75;16.15;;;;;;;1.98;100.00;101191.89;1757940;80;21484;-83
2022/12/15 17:19:07;;;;;;;52.20;18.12;;;;;;;2.02;100.00;101189.16;1753681;80;21023;-83
2022/12/15 17:21:52;;;;;;;53.45;17.82;;;;;;;2.08;100.00;101182.27;1750873;80;21657;-83
2022/12/15 17:24:21;;;;;;;50.12;17.15;;;;;;;2.12;100.00;101188.88;1750952;80;21284;-83
2022/12/15 17:26:47;;;;;;;49.75;16.07;;;;;;;2.12;100.00;101184.89;1742297;80;21093;-83
2022/12/15 17:29:20;;;;;;;54.55;19.77;;;;;;;2.19;100.00;101180.96;1764642;80;21043;-83
2022/12/15 17:31:46;;;;;;;50.98;17.87;;;;;;;2.26;100.00;101181.83;1753072;80;26525;-83
2022/12/15 17:34:32;;;;;;;53.95;18.05;;;;;;;2.21;100.00;101182.94;1754322;80;20985;-83
2022/12/15 17:37:03;;;;;;;50.73;16.55;;;;;;;2.19;100.00;101176.45;1755438;80;21062;-82
2022/12/15 17:39:30;;;;;;;50.12;17.37;;;;;;;2.22;100.00;101172.09;1732109;81;21221;-82
2022/12/15 17:41:56;;;;;;;46.68;15.55;;;;;;;2.16;100.00;101168.86;1713984;82;22094;-83
2022/12/15 17:44:25;;;;;;;43.75;14.80;;;;;;;2.18;100.00;101164.19;1719992;81;20927;-83
2022/12/15 17:46:52;;;;;;;44.77;15.40;;;;;;;2.22;100.00;101173.42;1706124;81;21188;-83
2022/12/15 17:49:20;;;;;;;44.88;15.00;;;;;;;2.22;100.00;101167.28;1730441;81;20893;-83
2022/12/15 17:51:47;;;;;;;41.50;14.87;;;;;;;2.24;100.00;101170.58;1742719;81;21079;-82
2022/12/15 17:54:17;;;;;;;40.95;14.68;;;;;;;2.21;100.00;101172.30;1731008;81;21029;-83
2022/12/15 17:56:47;;;;;;;45.73;15.48;;;;;;;2.19;100.00;101167.66;1740326;82;21330;-83
2022/12/15 17:59:16;;;;;;;46.37;15.03;;;;;;;2.21;100.00;101173.11;1739897;80;21119;-83
2022/12/15 18:01:42;;;;;;;43.30;14.78;;;;;;;2.23;100.00;101176.38;1674413;84;21103;-83
2022/12/15 18:04:10;;;;;;;40.40;13.72;;;;;;;2.17;100.00;101167.84;1667087;84;20909;-83
2022/12/15 18:06:38;;;;;;;44.67;15.40;;;;;;;2.17;100.00;101170.50;1645577;86;21463;-82
2022/12/15 18:09:12;;;;;;;39.15;13.78;;;;;;;2.20;100.00;101175.44;1656970;85;22336;-82
2022/12/15 18:11:38;;;;;;;39.25;14.35;;;;;;;2.18;100.00;101168.17;1587559;88;21274;-82
2022/12/15 18:14:13;;;;;;;40.12;13.70;;;;;;;2.16;100.00;101165.39;1586517;87;21021;-83
2022/12/15 18:16:39;;;;;;;39.50;14.78;;;;;;;2.16;100.00;101162.73;1560474;90;21122;-82
2022/12/15 18:19:05;;;;;;;39.27;14.40;;;;;;;2.10;100.00;101162.16;1557157;90;21105;-83
2022/12/15 18:21:31;;;;;;;41.63;14.30;;;;;;;2.12;100.00;101160.97;1553749;90;21054;-82
2022/12/15 18:23:57;;;;;;;39.60;14.68;;;;;;;2.14;100.00;101160.76;1587069;88;21232;-82
2022/12/15 18:26:24;;;;;;;41.50;14.20;;;;;;;2.12;100.00;101162.30;1555700;90;21777;-83
2022/12/15 18:28:50;;;;;;;38.85;13.62;;;;;;;2.16;100.00;101164.88;1557125;89;21652;-82
2022/12/15 18:31:26;;;;;;;37.83;13.78;;;;;;;2.19;100.00;101168.48;1531178;90;21570;-83
2022/12/15 18:33:57;;;;;;;42.10;14.20;;;;;;;2.19;100.00;101164.50;1534469;91;21052;-83
2022/12/15 18:36:23;;;;;;;42.65;14.20;;;;;;;2.20;100.00;101160.81;1528345;90;21782;-83
2022/12/15 18:38:49;;;;;;;36.38;12.70;;;;;;;2.22;100.00;101164.11;1528498;90;21146;-83
2022/12/15 18:41:18;;;;;;;36.98;12.78;;;;;;;2.21;100.00;101154.50;1531839;91;20978;-82
2022/12/15 18:43:45;;;;;;;38.40;13.55;;;;;;;2.22;100.00;101161.45;1527261;91;21162;-82
2022/12/15 18:46:14;;;;;;;41.10;13.90;;;;;;;2.24;100.00;101155.96;1533493;92;21146;-84
2022/12/15 18:48:42;;;;;;;37.08;14.23;;;;;;;2.23;100.00;101153.78;1527177;91;21128;-83
2022/12/15 18:51:21;;;;;;;45.23;15.18;;;;;;;2.21;100.00;101146.52;1531931;91;21071;-83
2022/12/15 18:57:31;;;;;;;41.33;15.15;;;;;;;2.21;100.00;101144.38;1531348;91;21082;-83
2022/12/15 19:00:08;;;;;;;44.38;16.45;;;;;;;2.19;100.00;101146.39;1512679;93;21075;-83
2022/12/15 19:02:34;;;;;;;41.45;16.27;;;;;;;2.20;100.00;101146.19;1507865;92;21107;-83
2022/12/15 19:05:00;;;;;;;46.28;15.65;;;;;;;2.21;100.00;101139.06;1532408;92;21894;-83
2022/12/15 19:07:26;;;;;;;49.15;16.30;;;;;;;2.22;100.00;101152.15;1526534;93;21175;-83
2022/12/15 19:09:53;;;;;;;45.33;16.80;;;;;;;2.15;100.00;101148.63;1508025;94;21078;-83
2022/12/15 19:16:01;;;;;;;42.53;15.28;;;;;;;2.19;100.00;101150.38;1629330;86;21016;-83
2022/12/15 19:24:10;;;;;;;43.23;15.95;;;;;;;2.14;100.00;101156.26;1619251;88;21156;-83
2022/12/15 19:26:39;;;;;;;60.10;18.37;;;;;;;2.14;100.00;101156.77;1560193;91;21057;-83
2022/12/15 19:29:19;;;;;;;56.48;20.72;;;;;;;2.15;100.00;101158.44;1563712;90;21631;-84
2022/12/15 19:31:48;;;;;;;73.45;24.37;;;;;;;2.15;100.00;101159.77;1560600;90;21144;-83
2022/12/15 19:34:15;;;;;;;80.72;25.25;;;;;;;2.13;100.00;101158.61;1564340;90;21106;-83
2022/12/15 19:36:41;;;;;;;94.13;29.85;;;;;;;2.15;100.00;101163.24;1570712;89;21149;-83
2022/12/15 19:39:13;;;;;;;89.50;27.22;;;;;;;2.15;100.00;101166.41;1585958;89;21134;-83
2022/12/15 19:41:39;;;;;;;83.52;27.20;;;;;;;2.16;100.00;101170.70;1549420;92;21859;-84
2022/12/15 19:44:13;;;;;;;71.87;24.23;;;;;;;2.17;100.00;101167.84;1504680;93;21102;-84
2022/12/15 19:46:42;;;;;;;59.03;20.68;;;;;;;2.16;100.00;101157.41;1509557;92;21099;-83
2022/12/15 19:49:08;;;;;;;50.17;16.90;;;;;;;2.12;100.00;101151.66;1524253;92;21163;-84
2022/12/15 19:51:36;;;;;;;47.10;17.10;;;;;;;2.14;100.00;101148.80;1565830;89;21632;-83
2022/12/15 19:54:02;;;;;;;50.35;17.62;;;;;;;2.12;100.00;101156.13;1534002;91;21814;-84
2022/12/15 19:56:29;;;;;;;46.98;16.12;;;;;;;2.15;100.00;101160.58;1551664;91;21047;-84
2022/12/15 19:58:55;;;;;;;47.58;16.95;;;;;;;2.18;100.00;101168.17;1557561;89;21117;-84
2022/12/15 20:01:22;;;;;;;57.45;20.70;;;;;;;2.12;100.00;101174.26;1564806;90;21099;-84
2022/12/15 20:03:51;;;;;;;60.05;20.82;;;;;;;2.23;100.00;101173.72;1574358;90;21070;-84
2022/12/15 20:06:24;;;;;;;61.42;19.70;;;;;;;2.22;100.00;101180.06;1569007;90;21268;-84
2022/12/15 20:08:54;;;;;;;54.03;20.12;;;;;;;2.22;100.00;101180.06;1550844;92;21130;-84
2022/12/15 20:11:30;;;;;;;56.18;19.12;;;;;;;2.18;100.00;101179.33;1542493;91;21617;-84
2022/12/15 20:13:56;;;;;;;56.58;20.50;;;;;;;2.20;100.00;101181.27;1549256;91;21024;-84
2022/12/15 20:16:23;;;;;;;57.13;19.70;;;;;;;2.25;100.00;101178.36;1547625;91;21169;-84
2022/12/15 20:18:53;;;;;;;50.00;17.42;;;;;;;2.25;100.00;101172.22;1544859;91;21099;-84
2022/12/15 20:21:21;;;;;;;45.48;15.55;;;;;;;2.22;100.00;101177.41;1568434;89;21552;-83
2022/12/15 20:24:08;;;;;;;47.93;15.83;;;;;;;2.19;100.00;101177.79;1598530;88;21162;-84
2022/12/15 20:26:36;;;;;;;48.23;16.37;;;;;;;2.21;100.00;101181.60;1613472;87;21537;-84
2022/12/15 20:29:04;;;;;;;48.33;16.32;;;;;;;2.22;100.00;101185.38;1614431;88;21205;-84
2022/12/15 20:31:30;;;;;;;44.53;15.53;;;;;;;2.20;100.00;101175.95;1611680;87;21583;-83
2022/12/15 20:37:01;;;;;;;50.30;16.62;;;;;;;2.15;100.00;101173.06;1617379;87;21072;-83
2022/12/15 20:39:29;;;;;;;42.13;15.35;;;;;;;2.18;100.00;101187.30;1596959;87;21074;-83
2022/12/15 20:41:56;;;;;;;43.55;14.95;;;;;;;2.20;100.00;101195.38;1646743;86;21046;-83
2022/12/15 20:44:26;;;;;;;43.38;15.40;;;;;;;2.22;100.00;101189.88;1678004;85;21118;-84
2022/12/15 20:46:55;;;;;;;43.40;16.25;;;;;;;2.21;100.00;101193.05;1731187;80;21577;-84
2022/12/15 20:49:30;;;;;;;47.67;16.23;;;;;;;2.21;100.00;101185.59;1757550;80;20945;-83
2022/12/15 20:51:56;;;;;;;44.60;15.38;;;;;;;2.23;100.00;101184.36;1709318;82;21033;-84
2022/12/15 20:54:22;;;;;;;47.00;15.45;;;;;;;2.22;100.00;101182.73;1738127;82;20988;-84
2022/12/15 20:56:49;;;;;;;45.40;15.18;;;;;;;2.24;100.00;101185.21;1735559;82;21080;-83
2022/12/15 20:59:16;;;;;;;45.40;15.50;;;;;;;2.26;100.00;101186.67;1737114;82;21574;-84
2022/12/15 21:01:43;;;;;;;46.48;15.65;;;;;;;2.28;100.00;101186.47;1724293;81;21068;-83
2022/12/15 21:04:28;;;;;;;49.50;16.67;;;;;;;2.31;100.00;101185.27;1729704;82;21121;-84
2022/12/15 21:10:35;;;;;;;43.58;15.95;;;;;;;2.31;100.00;101178.61;1707279;80;21037;-83
2022/12/15 21:13:02;;;;;;;47.55;15.58;;;;;;;2.26;100.00;101175.19;1716137;81;21102;-83
2022/12/15 21:15:28;;;;;;;48.90;16.65;;;;;;;2.25;100.00;101179.69;1708272;82;21570;-84
2022/12/15 21:17:54;;;;;;;46.15;16.60;;;;;;;2.28;100.00;101180.62;1718154;81;21087;-83
2022/12/15 21:20:21;;;;;;;83.12;30.00;;;;;;;2.28;100.00;101173.98;1726620;81;21101;-83
2022/12/15 21:26:21;;;;;;;78.07;25.37;;;;;;;2.26;100.00;101168.53;1702154;81;21172;-84
2022/12/15 21:28:49;;;;;;;67.50;23.40;;;;;;;2.25;100.00;101162.91;1716641;82;20947;-83
2022/12/15 21:31:17;;;;;;;69.80;22.37;;;;;;;2.22;100.00;101144.69;1704406;83;21707;-84
2022/12/15 21:33:45;;;;;;;53.55;18.07;;;;;;;2.12;100.00;101134.38;1689189;83;21096;-84
2022/12/15 21:36:20;;;;;;;48.17;16.23;;;;;;;2.04;100.00;101135.32;1698784;82;21053;-83
2022/12/15 21:38:51;;;;;;;55.30;17.05;;;;;;;1.99;100.00;101148.34;1710135;82;21044;-84
2022/12/15 21:43:49;;;;;;;55.60;18.12;;;;;;;1.97;100.00;101180.11;1623153;86;21546;-84
2022/12/15 21:46:19;;;;;;;55.03;17.60;;;;;;;1.99;100.00;101187.40;1619752;87;21555;-84
2022/12/15 21:51:36;;;;;;;51.60;17.87;;;;;;;2.05;100.00;101191.95;1617436;87;21063;-84
2022/12/15 21:54:04;;;;;;;47.03;16.60;;;;;;;2.09;100.00;101190.59;1613397;86;21103;-84
2022/12/15 21:56:31;;;;;;;50.40;17.25;;;;;;;2.06;100.00;101184.32;1609759;86;21062;-84
2022/12/15 21:58:57;;;;;;;52.60;16.95;;;;;;;2.08;100.00;101198.73;1609386;87;21570;-84
2022/12/15 22:01:29;;;;;;;62.53;18.05;;;;;;;2.06;100.00;101204.26;1613449;86;22182;-85
2022/12/15 22:03:59;;;;;;;48.50;16.65;;;;;;;2.09;100.00;101206.53;1605652;87;21216;-84
2022/12/15 22:06:28;;;;;;;54.83;17.15;;;;;;;2.10;100.00;101196.72;1605050;87;21069;-83
2022/12/15 22:08:59;;;;;;;56.15;17.82;;;;;;;2.06;100.00;101193.63;1602816;87;21039;-84
2022/12/15 22:11:29;;;;;;;45.95;17.12;;;;;;;2.03;100.00;101192.67;1610380;87;21087;-84
2022/12/15 22:13:58;;;;;;;52.62;17.67;;;;;;;1.99;100.00;101197.52;1604058;87;21686;-83
2022/12/15 22:16:24;;;;;;;51.53;17.42;;;;;;;2.04;100.00;101198.30;1605640;87;21627;-85
2022/12/15 22:18:56;;;;;;;57.55;17.65;;;;;;;1.99;100.00;101196.70;1606211;87;21118;-84
2022/12/15 22:21:24;;;;;;;52.10;16.97;;;;;;;1.96;100.00;101195.75;1603498;86;21780;-84
2022/12/15 22:23:51;;;;;;;54.80;17.77;;;;;;;1.96;100.00;101197.08;1607324;86;21656;-83
2022/12/15 22:26:26;;;;;;;55.58;17.42;;;;;;;1.94;100.00;101200.42;1651902;84;21854;-84
2022/12/15 22:28:56;;;;;;;52.75;17.40;;;;;;;1.94;100.00;101201.75;1673175;85;22243;-84
2022/12/15 22:31:22;;;;;;;56.00;17.17;;;;;;;2.00;100.00;101200.52;1663336;84;21062;-84
2022/12/15 22:33:48;;;;;;;53.78;18.30;;;;;;;2.03;100.00;101207.30;1670107;85;21091;-84
2022/12/15 22:36:14;;;;;;;53.60;16.80;;;;;;;2.02;100.00;101208.28;1671879;85;20924;-84
2022/12/15 22:38:40;;;;;;;56.18;18.02;;;;;;;2.01;100.00;101213.30;1670671;84;21180;-83
2022/12/15 22:41:19;;;;;;;55.48;17.73;;;;;;;2.03;100.00;101207.30;1670731;84;20974;-84
2022/12/15 22:43:50;;;;;;;57.33;18.62;;;;;;;2.01;100.00;101209.30;1667676;84;21039;-83
2022/12/15 22:46:18;;;;;;;49.95;16.12;;;;;;;2.09;100.00;101226.48;1632083;83;21000;-84
2022/12/15 22:48:49;;;;;;;49.65;18.02;;;;;;;2.10;100.00;101224.13;1703224;84;21003;-84
2022/12/15 22:51:16;;;;;;;52.67;17.23;;;;;;;2.17;100.00;101224.19;1706486;84;21015;-84
2022/12/15 22:53:43;;;;;;;52.48;17.07;;;;;;;2.19;100.00;101221.66;1683230;84;21000;-84
2022/12/15 22:56:26;;;;;;;53.48;16.80;;;;;;;2.15;100.00;101220.41;1706742;84;21054;-84
2022/12/15 22:58:57;;;;;;;44.53;15.73;;;;;;;2.17;100.00;101224.19;1707289;84;21064;-83
2022/12/15 23:01:25;;;;;;;52.30;17.60;;;;;;;2.13;100.00;101228.25;1707220;84;21508;-83
2022/12/15 23:03:51;;;;;;;50.38;17.05;;;;;;;2.14;100.00;101226.71;1694460;84;21119;-83
2022/12/15 23:06:18;;;;;;;46.73;16.25;;;;;;;2.14;100.00;101232.03;1701893;84;21587;-83
2022/12/15 23:08:44;;;;;;;54.45;18.35;;;;;;;2.17;100.00;101242.80;1704676;84;21019;-84
2022/12/15 23:13:55;;;;;;;50.88;16.77;;;;;;;2.23;100.00;101260.14;1704473;84;21088;-83
2022/12/15 23:16:23;;;;;;;51.37;16.97;;;;;;;2.31;100.00;101263.71;1704769;84;21139;-83
2022/12/15 23:18:54;;;;;;;45.38;16.23;;;;;;;2.35;100.00;101265.79;1704389;82;21059;-83
2022/12/15 23:21:22;;;;;;;51.13;16.70;;;;;;;2.39;100.00;101279.55;1704983;84;21102;-83
2022/12/15 23:23:49;;;;;;;54.70;18.02;;;;;;;2.38;100.00;101284.06;1706667;84;21543;-83
2022/12/15 23:26:16;;;;;;;73.00;22.48;;;;;;;2.40;100.00;101285.19;1707079;84;21036;-83
2022/12/15 23:28:43;;;;;;;59.10;21.05;;;;;;;2.39;100.00;101291.52;1707122;84;21104;-83
2022/12/15 23:31:09;;;;;;;73.95;23.42;;;;;;;2.37;100.00;101294.87;1706914;84;21360;-83
2022/12/15 23:33:37;;;;;;;62.60;21.55;;;;;;;2.39;100.00;101305.64;1707008;84;21511;-84
2022/12/15 23:36:04;;;;;;;64.20;21.60;;;;;;;2.41;100.00;101317.41;1706982;84;21059;-83
2022/12/15 23:38:30;;;;;;;67.03;21.82;;;;;;;2.43;100.00;101336.16;1707141;84;21060;-83
2022/12/15 23:40:57;;;;;;;60.33;21.02;;;;;;;2.48;100.00;101337.76;1707073;84;21154;-84
2022/12/15 23:43:25;;;;;;;60.98;21.30;;;;;;;2.52;100.00;101333.39;1741353;80;20941;-83
2022/12/15 23:46:01;;;;;;;64.70;21.77;;;;;;;2.51;100.00;101320.60;1757406;80;21031;-82
2022/12/15 23:48:35;;;;;;;73.30;23.38;;;;;;;2.47;100.00;101329.95;1721717;82;21097;-83
2022/12/15 23:51:09;;;;;;;65.45;21.73;;;;;;;2.47;100.00;101340.11;1698234;83;21571;-83
2022/12/15 23:53:37;;;;;;;66.42;20.40;;;;;;;2.53;100.00;101347.00;1635853;87;21386;-83
2022/12/15 23:56:07;;;;;;;63.35;19.95;;;;;;;2.56;100.00;101351.47;1633942;87;21071;-83
2022/12/15 23:58:33;;;;;;;62.98;19.70;;;;;;;2.62;100.00;101354.70;1634038;87;21136;-83
